Moenville, South Dakota
Current Conditions -  °F | °C
As of 2:55 AM on Sunday 25 Jan 2015 (Local Time) from KPHP Reporting Station
Broken Clouds Broken Clouds  
Wind Chill: 25°   Ceiling: 4400
Heat Index: 34°   Visibility: 10mi
Dew Point: 28°   Wind: 13mph
Humidity: 79%   Direction: 300°WNW
Pressure: 29.99"   Gusts: NA
Location:  44.3169°N, 101.368°W
Report Text: KPHP 250955Z AUTO 30011KT 10SM BKN044 01/M02 A2999 RMK AO2 SLP161 T00111022
Loading
Personal Weather Stations






























Interactive Weather Map New forecast layout! Learn more

10-Day Weather Forecast

Advertisements
Track Severe Weather on mobile